Kralendijk, Bonaire, Dutch Antilles Cruise Port

Bonaire has consistently been ranked as the finest snorkeling and scuba diving destination in the Caribbean for two decades. This is because of the island's diligent stewardship of its marine resources. Since 1979, all the waters of Bonaire's coast have been legally protected.

Besides snorkeling and scuba diving, there is plenty more to be done here. Bonaire has trade winds that are usually steady and wash over the island. This creates ideal conditions for windsurfing. The sere beauty of this semi-desert landscape is home to an assortment of wildlife. Atop the rock formations of Washington Slagbaai you can find iguanas toasting themselves, while they watch a vast cloud of orange-pink flamingoes drift across the bone-white salt flats. The divi-divi trees bending into the surreal sculptures of the wind, and towering cacti represent the Caribbean's diverse ecology.

Another great thing about Bonaire is that it has a yearly average temperature of 82 degrees F (27.8 degrees C) with an average water temperature of 80 degrees F (26.7 degrees C). All year, Bonaire is not likely to see more than 22 inches (56 cm) of rain. This can be attributed to its nearly constant humidity of 76% and year round sunny forecast.

Cruise Deals Including Bonaire

Date Ship Nts Destination Inside Oceanview Balcony Suite Per Night
2020-05-13 Equinox 10 Southern Caribbean $ 1169 pp $ 1669 pp $ 2149 pp $ 6946 pp $ 105 pp/pd
2020-05-17 Freedom Of The Seas 7 Southern Caribbean $ 377 pp $ 529 pp $ 829 pp $ 1099 pp $ 54 pp/pd
2020-05-31 Freedom Of The Seas 7 Southern Caribbean $ 377 pp $ 599 pp $ 899 pp $ 1199 pp $ 54 pp/pd
2020-06-14 Freedom Of The Seas 7 Southern Caribbean $ 377 pp $ 619 pp $ 899 pp $ 1399 pp $ 54 pp/pd
2020-06-27 Horizon 8 Southern Caribbean $ 669 pp $ 879 pp $ 1089 pp $ 2477 pp $ 84 pp/pd
2020-06-28 Freedom Of The Seas 7 Southern Caribbean $ 377 pp $ 629 pp $ 869 pp $ 1218 pp $ 54 pp/pd
2020-07-04 Magic 8 Southern Caribbean $ 549 pp $ 759 pp $ 979 pp $ 2012 pp $ 69 pp/pd
2020-07-12 Freedom Of The Seas 7 Southern Caribbean $ 384 pp $ 659 pp $ 899 pp $ 1337 pp $ 55 pp/pd
2020-07-25 Horizon 8 Southern Caribbean $ 669 pp $ 879 pp $ 1129 pp $ 2423 pp $ 84 pp/pd
2020-07-26 Freedom Of The Seas 7 Southern Caribbean $ 377 pp $ 629 pp $ 929 pp $ 1379 pp $ 54 pp/pd
2020-08-09 Freedom Of The Seas 7 Southern Caribbean $ 399 pp $ 699 pp $ 899 pp $ 1299 pp $ 57 pp/pd
2020-08-22 Horizon 8 Southern Caribbean $ 549 pp $ 739 pp $ 969 pp $ 1796 pp $ 69 pp/pd
2020-08-23 Freedom Of The Seas 7 Southern Caribbean $ 399 pp $ 599 pp $ 818 pp $ 1199 pp $ 57 pp/pd
2020-08-29 Magic 8 Southern Caribbean $ 499 pp $ 679 pp $ 814 pp $ 1674 pp $ 62 pp/pd
2020-09-04 Equinox 10 Southern Caribbean $ 1209 pp $ 1549 pp $ 1769 pp $ 9199 pp $ 119 pp/pd
2020-09-06 Freedom Of The Seas 7 Southern Caribbean $ 377 pp $ 599 pp $ 809 pp $ 1279 pp $ 54 pp/pd
2020-09-20 Freedom Of The Seas 7 Southern Caribbean $ 399 pp $ 699 pp $ 899 pp N/A $ 57 pp/pd
2020-09-25 Equinox 10 Southern Caribbean $ 1309 pp $ 1509 pp $ 1739 pp $ 9349 pp $ 127 pp/pd
2020-10-03 Horizon 8 Southern Caribbean $ 599 pp $ 769 pp $ 989 pp $ 2219 pp $ 75 pp/pd
2020-10-04 Freedom Of The Seas 7 Southern Caribbean $ 399 pp $ 699 pp $ 929 pp $ 1999 pp $ 57 pp/pd
2020-10-17 Summit 12 Repositioning $ 1553 pp $ 1721 pp $ 2094 pp $ 8409 pp $ 126 pp/pd
2020-10-18 Freedom Of The Seas 7 Southern Caribbean $ 429 pp $ 799 pp $ 999 pp $ 2032 pp $ 61 pp/pd
2020-10-24 Breeze 8 Southern Caribbean $ 569 pp $ 864 pp $ 1079 pp N/A $ 71 pp/pd
2020-10-30 Seven Seas Navigator 16 Bermuda N/A N/A N/A $ 5699 pp $ 356 pp/pd
2020-11-01 Freedom Of The Seas 7 Southern Caribbean $ 419 pp $ 799 pp $ 1079 pp $ 1583 pp $ 60 pp/pd
2020-11-02 Reflection 11 Southern Caribbean $ 1299 pp $ 1679 pp $ 2179 pp $ 4809 pp $ 114 pp/pd
2020-11-06 Equinox 9 Southern Caribbean $ 1359 pp $ 1619 pp $ 1919 pp $ 6169 pp $ 149 pp/pd
2020-11-13 Edge 9 Southern Caribbean $ 1639 pp $ 2079 pp $ 2339 pp $ 32249 pp $ 177 pp/pd
2020-11-15 Freedom Of The Seas 7 Southern Caribbean $ 429 pp $ 809 pp $ 999 pp $ 1710 pp $ 61 pp/pd
2020-11-20 Explorer Of The Seas 9 Southern Caribbean $ 1198 pp $ 1348 pp $ 1649 pp $ 2629 pp $ 133 pp/pd
2020-11-21 Constellation 11 Southern Caribbean $ 1187 pp $ 1392 pp $ 1719 pp $ 11334 pp $ 106 pp/pd
2020-11-22 Nieuw Statendam 21 Southern Caribbean $ 2289 pp $ 2759 pp $ 3429 pp $ 4709 pp $ 109 pp/pd
2020-11-29 Freedom Of The Seas 7 Southern Caribbean $ 499 pp $ 759 pp $ 919 pp $ 1279 pp $ 71 pp/pd
2020-11-30 Sky Princess 20 Caribbean $ 2349 pp N/A $ 3199 pp $ 4729 pp $ 117 pp/pd
2020-12-02 Nieuw Statendam 21 Southern Caribbean $ 2099 pp $ 2569 pp $ 3139 pp $ 4709 pp $ 100 pp/pd
2020-12-04 Explorer Of The Seas 9 Southern Caribbean $ 849 pp $ 1049 pp $ 1399 pp $ 2223 pp $ 94 pp/pd
2020-12-05 Summit 7 Southern Caribbean $ 1049 pp $ 1209 pp $ 1619 pp $ 5469 pp $ 148 pp/pd
2020-12-10 Sky Princess 10 Southern Caribbean $ 1149 pp N/A $ 1439 pp $ 2329 pp $ 115 pp/pd
2020-12-13 Freedom Of The Seas 7 Southern Caribbean $ 459 pp $ 799 pp $ 999 pp $ 1541 pp $ 66 pp/pd
2020-12-18 Explorer Of The Seas 9 Southern Caribbean $ 1098 pp $ 1299 pp $ 1598 pp $ 2393 pp $ 122 pp/pd
2020-12-20 Sky Princess 16 Caribbean $ 2639 pp $ 3859 pp $ 3472 pp $ 5455 pp $ 165 pp/pd
2020-12-21 Seven Seas Splendor 14 Eastern Caribbean N/A N/A N/A $ 9599 pp $ 686 pp/pd
2020-12-26 Horizon 8 Southern Caribbean $ 1109 pp $ 1349 pp $ 1779 pp $ 3269 pp $ 139 pp/pd
2020-12-27 Freedom Of The Seas 7 Southern Caribbean $ 999 pp $ 1299 pp $ 1529 pp $ 3225 pp $ 143 pp/pd
2020-12-28 Sky Princess 8 Caribbean $ 1389 pp $ 2099 pp $ 1889 pp $ 2799 pp $ 174 pp/pd
2021-01-01 Explorer Of The Seas 9 Southern Caribbean $ 799 pp $ 999 pp $ 1299 pp $ 2262 pp $ 89 pp/pd
2021-01-04 Reflection 11 Southern Caribbean N/A $ 2099 pp $ 2499 pp $ 8659 pp $ 191 pp/pd
2021-01-05 Seven Seas Mariner 51 Transatlantic N/A N/A N/A $ 34299 pp $ 673 pp/pd
2021-01-06 Nieuw Statendam 21 Southern Caribbean $ 2899 pp $ 3649 pp $ 3899 pp $ 5999 pp $ 138 pp/pd
2021-01-09 Horizon 8 Southern Caribbean $ 639 pp $ 844 pp $ 1149 pp $ 1946 pp $ 80 pp/pd
2021-01-10 Freedom Of The Seas 7 Southern Caribbean $ 599 pp $ 809 pp $ 979 pp $ 1649 pp $ 86 pp/pd
2021-01-13 Riviera 66 World Cruise N/A $ 19249 pp $ 22449 pp $ 30749 pp $ 292 pp/pd
2021-01-14 Seven Seas Splendor 12 Eastern Caribbean N/A N/A N/A $ 7299 pp $ 608 pp/pd
2021-01-15 Explorer Of The Seas 9 Southern Caribbean $ 829 pp $ 1029 pp $ 1329 pp $ 2589 pp $ 92 pp/pd
2021-01-17 Nieuw Statendam 14 Southern Caribbean $ 1899 pp $ 2299 pp $ 2549 pp $ 3899 pp $ 136 pp/pd
2021-01-19 Sky Princess 20 Caribbean $ 2529 pp N/A $ 4049 pp $ 5449 pp $ 126 pp/pd
2021-01-23 Rhapsody Of The Seas 10 Western Caribbean $ 886 pp $ 993 pp $ 1863 pp N/A $ 89 pp/pd
2021-01-24 Freedom Of The Seas 7 Southern Caribbean $ 669 pp $ 799 pp $ 959 pp $ 1688 pp $ 96 pp/pd
2021-01-25 Reflection 11 Southern Caribbean $ 1529 pp $ 2089 pp $ 2309 pp $ 5809 pp $ 135 pp/pd
2021-01-29 Explorer Of The Seas 9 Southern Caribbean $ 829 pp $ 1049 pp $ 1349 pp $ 2089 pp $ 92 pp/pd
2021-01-30 Radiance 8 Southern Caribbean $ 639 pp $ 789 pp $ 1149 pp $ 1739 pp $ 80 pp/pd
2021-01-31 Epic 7 Caribbean $ 797 pp N/A $ 1329 pp $ 1511 pp $ 114 pp/pd
2021-02-01 Encore 12 Panama Canal $ 1511 pp $ 2239 pp $ 2883 pp $ 3219 pp $ 126 pp/pd
2021-02-08 Sky Princess 20 Caribbean $ 2479 pp N/A $ 3388 pp $ 5479 pp $ 124 pp/pd
2021-02-12 Explorer Of The Seas 9 Southern Caribbean $ 899 pp $ 1099 pp $ 1379 pp $ 2594 pp $ 100 pp/pd
2021-02-14 Epic 7 Caribbean $ 867 pp N/A $ 1448 pp $ 1735 pp $ 124 pp/pd
2021-02-15 Constellation 11 Southern Caribbean $ 1466 pp $ 1732 pp $ 2346 pp $ 6654 pp $ 133 pp/pd
2021-02-16 Riviera 22 World Cruise $ 5249 pp $ 6849 pp $ 7849 pp $ 10749 pp $ 239 pp/pd
2021-02-17 Nieuw Statendam 21 Southern Caribbean $ 2999 pp $ 3799 pp $ 4099 pp $ 6299 pp $ 143 pp/pd
2021-02-18 Sky Princess 20 Caribbean $ 2479 pp $ 3679 pp $ 3595 pp $ 5379 pp $ 124 pp/pd
2021-02-19 Equinox 9 Southern Caribbean $ 1428 pp $ 1609 pp $ 1949 pp N/A $ 159 pp/pd
2021-02-21 Freedom Of The Seas 7 Southern Caribbean $ 609 pp $ 809 pp $ 929 pp $ 1644 pp $ 87 pp/pd
2021-02-26 Explorer Of The Seas 9 Southern Caribbean $ 746 pp $ 914 pp $ 1212 pp $ 1968 pp $ 83 pp/pd
2021-02-27 Summit 7 Southern Caribbean $ 999 pp $ 1249 pp $ 1429 pp $ 8719 pp $ 140 pp/pd
2021-02-28 Sky Princess 20 Caribbean $ 2379 pp N/A $ 3268 pp $ 4829 pp $ 119 pp/pd
2021-03-06 Horizon 8 Southern Caribbean $ 669 pp $ 889 pp $ 1249 pp $ 2109 pp $ 84 pp/pd
2021-03-07 Epic 7 Caribbean $ 958 pp N/A $ 1413 pp $ 1560 pp $ 137 pp/pd
2021-03-08 Reflection 11 Southern Caribbean $ 1449 pp $ 2189 pp $ 2359 pp $ 13759 pp $ 128 pp/pd
2021-03-10 Sky Princess 20 Caribbean $ 2279 pp N/A $ 3249 pp $ 4249 pp $ 114 pp/pd
2021-03-12 Equinox 9 Southern Caribbean $ 1489 pp $ 1709 pp $ 1769 pp $ 9419 pp $ 163 pp/pd
2021-03-14 Epic 7 Caribbean $ 790 pp N/A $ 1567 pp $ 1798 pp $ 113 pp/pd
2021-03-20 Sky Princess 20 Caribbean $ 2279 pp N/A $ 3249 pp $ 4249 pp $ 114 pp/pd
2021-03-21 Freedom Of The Seas 7 Southern Caribbean $ 706 pp $ 808 pp $ 994 pp $ 1542 pp $ 101 pp/pd
2021-03-26 Explorer Of The Seas 9 Southern Caribbean $ 849 pp $ 1029 pp $ 1359 pp $ 2495 pp $ 94 pp/pd
2021-03-27 Summit 7 Southern Caribbean $ 1039 pp $ 1299 pp $ 1479 pp $ 6219 pp $ 147 pp/pd
2021-03-28 Epic 7 Caribbean $ 839 pp N/A $ 1308 pp $ 1490 pp $ 120 pp/pd
2021-03-29 Constellation 11 Southern Caribbean $ 1493 pp $ 1714 pp $ 2081 pp $ 7509 pp $ 133 pp/pd
2021-04-02 Equinox 9 Southern Caribbean $ 1449 pp $ 1749 pp $ 1819 pp $ 11499 pp $ 159 pp/pd
2021-04-03 Seabourn Odyssey 21 Southern Caribbean N/A $ 9999 pp N/A $ 9999 pp $ 476 pp/pd
2021-04-04 Freedom Of The Seas 7 Southern Caribbean $ 726 pp $ 862 pp $ 1059 pp $ 1708 pp $ 104 pp/pd
2021-04-10 Seabourn Odyssey 14 Southern Caribbean N/A $ 6999 pp N/A $ 6999 pp $ 500 pp/pd
2021-04-17 Horizon 8 Southern Caribbean $ 699 pp $ 929 pp $ 1259 pp $ 2201 pp $ 87 pp/pd
2021-04-18 Freedom Of The Seas 7 Southern Caribbean $ 736 pp $ 843 pp $ 1039 pp $ 1718 pp $ 105 pp/pd
2021-04-24 Summit 7 Southern Caribbean $ 939 pp $ 1149 pp $ 1379 pp $ 5569 pp $ 133 pp/pd
2021-04-27 Seven Seas Navigator 14 Eastern Caribbean N/A N/A N/A $ 5999 pp $ 429 pp/pd
2021-05-01 Horizon 8 Southern Caribbean $ 729 pp $ 949 pp $ 1259 pp $ 2011 pp $ 91 pp/pd
2021-05-16 Seven Seas Navigator 15 Eastern Caribbean N/A N/A N/A $ 4699 pp $ 313 pp/pd
2021-05-29 Horizon 8 Southern Caribbean $ 909 pp $ 1119 pp $ 1439 pp $ 2346 pp $ 114 pp/pd
2021-06-12 Horizon 8 Southern Caribbean $ 979 pp $ 1219 pp $ 1589 pp $ 2319 pp $ 122 pp/pd
2021-07-10 Horizon 8 Southern Caribbean $ 989 pp $ 1229 pp $ 1599 pp $ 2329 pp $ 124 pp/pd
2021-08-07 Horizon 8 Southern Caribbean $ 889 pp $ 1089 pp $ 1419 pp $ 2129 pp $ 111 pp/pd
2021-08-27 Equinox 9 Southern Caribbean $ 1259 pp $ 1499 pp $ 1839 pp $ 9744 pp $ 140 pp/pd
2021-09-04 Horizon 8 Southern Caribbean $ 619 pp $ 789 pp $ 1039 pp $ 1681 pp $ 77 pp/pd
2021-09-17 Equinox 9 Southern Caribbean $ 1429 pp $ 1679 pp $ 2009 pp $ 11244 pp $ 159 pp/pd
2021-09-18 Horizon 8 Southern Caribbean $ 619 pp $ 789 pp $ 1039 pp $ 1756 pp $ 77 pp/pd
2021-10-02 Horizon 8 Southern Caribbean $ 609 pp $ 789 pp $ 1029 pp $ 1681 pp $ 76 pp/pd
2021-10-08 Equinox 9 Southern Caribbean $ 1389 pp $ 1629 pp $ 1959 pp $ 9894 pp $ 154 pp/pd
2021-10-15 Sirena 27 World Cruise $ 4249 pp $ 4849 pp $ 6649 pp $ 9649 pp $ 157 pp/pd
2021-10-23 Summit 7 Southern Caribbean $ 1019 pp $ 1149 pp $ 1229 pp $ 6669 pp $ 146 pp/pd
2021-10-29 Equinox 9 Southern Caribbean $ 1389 pp $ 1629 pp $ 1959 pp $ 9694 pp $ 154 pp/pd
2021-10-30 Sirena 12 Caribbean $ 1899 pp $ 2199 pp $ 3199 pp $ 4399 pp $ 158 pp/pd
2021-11-06 Summit 7 Southern Caribbean $ 1019 pp $ 1149 pp $ 1229 pp $ 6669 pp $ 146 pp/pd
2021-11-07 Brilliance Of The Seas 11 Repositioning $ 830 pp $ 991 pp $ 1600 pp $ 2729 pp $ 75 pp/pd
2021-11-12 Explorer Of The Seas 9 Western Caribbean $ 799 pp $ 999 pp $ 929 pp $ 1999 pp $ 89 pp/pd
2021-11-19 Equinox 9 Southern Caribbean $ 1469 pp $ 1719 pp $ 1929 pp $ 7944 pp $ 163 pp/pd
2021-11-20 Summit 7 Southern Caribbean $ 1209 pp $ 1299 pp $ 1509 pp $ 7529 pp $ 167 pp/pd
2021-11-22 Edge 11 Transcanal $ 2129 pp $ 2319 pp $ 2429 pp $ 54499 pp $ 186 pp/pd
2021-11-26 Explorer Of The Seas 9 Western Caribbean $ 799 pp $ 999 pp $ 929 pp $ 1999 pp $ 89 pp/pd
2021-11-27 Horizon 8 Southern Caribbean $ 599 pp $ 769 pp $ 1019 pp $ 1661 pp $ 75 pp/pd
2021-11-28 Freedom Of The Seas 7 Southern Caribbean $ 648 pp $ 780 pp $ 956 pp $ 1894 pp $ 93 pp/pd
2021-12-04 Summit 7 Southern Caribbean $ 969 pp $ 1099 pp $ 1179 pp $ 6619 pp $ 138 pp/pd
2021-12-06 Sunshine 10 Southern Caribbean $ 739 pp $ 1019 pp $ 1399 pp $ 2439 pp $ 74 pp/pd
2021-12-10 Explorer Of The Seas 9 Western Caribbean $ 799 pp $ 999 pp $ 929 pp $ 1999 pp $ 89 pp/pd
2021-12-13 Discovery Princess 16 Caribbean $ 2519 pp N/A $ 3277 pp $ 4199 pp $ 157 pp/pd
2021-12-18 Freedom 8 Southern Caribbean $ 899 pp $ 1079 pp $ 1429 pp $ 1909 pp $ 112 pp/pd
2021-12-21 Discovery Princess 16 Caribbean $ 2659 pp N/A $ 3569 pp $ 4569 pp $ 166 pp/pd
2021-12-23 Riviera 12 Caribbean $ 2899 pp $ 3949 pp $ 4599 pp $ 6999 pp $ 242 pp/pd
2021-12-24 Explorer Of The Seas 9 Western Caribbean $ 1299 pp $ 1629 pp $ 1509 pp $ 3269 pp $ 144 pp/pd
2021-12-26 Sunrise 8 Southern Caribbean $ 929 pp $ 1129 pp $ 1479 pp $ 2009 pp $ 116 pp/pd
2022-01-03 Constellation 11 Southern Caribbean $ 1599 pp $ 1749 pp $ 2549 pp $ 12849 pp $ 136 pp/pd
2022-01-04 Riviera 73 World Cruise $ 17799 pp $ 20499 pp $ 23299 pp $ 32799 pp $ 244 pp/pd
2022-01-07 Explorer Of The Seas 9 Western Caribbean $ 849 pp $ 1069 pp $ 979 pp $ 2149 pp $ 94 pp/pd
2022-01-08 Horizon 8 Southern Caribbean $ 629 pp $ 829 pp $ 1179 pp $ 1881 pp $ 79 pp/pd
2022-01-15 Summit 7 Southern Caribbean $ 1019 pp $ 1149 pp $ 1229 pp $ 6719 pp $ 146 pp/pd
2022-01-21 Explorer Of The Seas 9 Western Caribbean $ 849 pp $ 1069 pp $ 979 pp $ 2149 pp $ 94 pp/pd
2022-01-22 Horizon 8 Southern Caribbean $ 679 pp $ 899 pp $ 1259 pp $ 1961 pp $ 85 pp/pd
2022-01-23 Freedom Of The Seas 7 Southern Caribbean $ 790 pp $ 918 pp $ 1116 pp $ 2125 pp $ 113 pp/pd
2022-01-24 Edge 11 Southern Caribbean $ 1589 pp $ 1789 pp $ 2279 pp $ 46799 pp $ 138 pp/pd
2022-01-29 Summit 7 Southern Caribbean $ 1019 pp $ 1149 pp $ 1229 pp $ 6719 pp $ 146 pp/pd
2022-02-03 Seven Seas Splendor 14 Eastern Caribbean N/A N/A N/A $ 7799 pp $ 557 pp/pd
2022-02-05 Seven Seas Navigator 10 Eastern Caribbean N/A N/A N/A $ 4699 pp $ 470 pp/pd
2022-02-07 Riviera 12 Caribbean $ 3499 pp $ 3999 pp $ 4499 pp $ 6199 pp $ 292 pp/pd
2022-02-11 Sirena 12 Caribbean $ 2999 pp $ 3399 pp $ 4699 pp $ 6199 pp $ 250 pp/pd
2022-02-12 Freedom 8 Southern Caribbean $ 649 pp $ 799 pp $ 1089 pp $ 1569 pp $ 81 pp/pd
2022-02-14 Edge 11 Transcanal $ 2039 pp $ 2219 pp $ 2299 pp $ 52299 pp $ 177 pp/pd
2022-02-18 Explorer Of The Seas 9 Western Caribbean $ 849 pp $ 1069 pp $ 979 pp $ 2149 pp $ 94 pp/pd
2022-02-19 Horizon 8 Southern Caribbean $ 709 pp $ 909 pp $ 1259 pp $ 1961 pp $ 89 pp/pd
2022-02-20 Freedom Of The Seas 7 Southern Caribbean $ 869 pp $ 1012 pp $ 1233 pp $ 2363 pp $ 124 pp/pd
2022-02-26 Summit 7 Southern Caribbean $ 1019 pp $ 1139 pp $ 1229 pp $ 6719 pp $ 146 pp/pd
2022-03-04 Explorer Of The Seas 9 Western Caribbean $ 849 pp $ 1069 pp $ 979 pp $ 2149 pp $ 94 pp/pd
2022-03-05 Sirena 12 Caribbean $ 2299 pp $ 2599 pp $ 3599 pp $ 4899 pp $ 192 pp/pd
2022-03-07 Edge 11 Southern Caribbean $ 1619 pp $ 1879 pp $ 2389 pp $ 48999 pp $ 142 pp/pd
2022-03-12 Summit 7 Southern Caribbean $ 1069 pp $ 1199 pp $ 1279 pp $ 6769 pp $ 153 pp/pd
2022-03-18 Explorer Of The Seas 9 Western Caribbean $ 849 pp $ 1069 pp $ 979 pp $ 2149 pp $ 94 pp/pd
2022-03-19 Horizon 8 Southern Caribbean $ 789 pp $ 989 pp $ 1339 pp $ 2041 pp $ 99 pp/pd
2022-03-20 Seven Seas Navigator 14 Eastern Caribbean N/A N/A N/A $ 4699 pp $ 336 pp/pd
2022-03-25 Equinox 9 Southern Caribbean $ 1389 pp $ 1809 pp $ 2219 pp $ 13544 pp $ 154 pp/pd
2022-03-26 Summit 7 Southern Caribbean $ 1069 pp $ 1199 pp $ 1279 pp $ 6769 pp $ 153 pp/pd
2022-03-28 Edge 11 Transcanal $ 1989 pp $ 2179 pp $ 2269 pp $ 51199 pp $ 173 pp/pd
2022-03-29 Sirena 21 World Cruise $ 3099 pp $ 3499 pp $ 5199 pp $ 7399 pp $ 148 pp/pd
2022-04-01 Explorer Of The Seas 9 Western Caribbean $ 849 pp $ 1069 pp $ 979 pp $ 2149 pp $ 94 pp/pd
2022-04-09 Summit 7 Southern Caribbean $ 1149 pp $ 1239 pp $ 1439 pp $ 7269 pp $ 160 pp/pd
2022-04-15 Explorer Of The Seas 9 Western Caribbean $ 899 pp $ 1129 pp $ 1029 pp $ 2279 pp $ 100 pp/pd
2022-04-16 Horizon 8 Southern Caribbean $ 759 pp $ 959 pp $ 1309 pp $ 1949 pp $ 95 pp/pd
2022-04-17 Freedom Of The Seas 7 Southern Caribbean $ 895 pp $ 1051 pp $ 1310 pp $ 2416 pp $ 128 pp/pd
2022-04-23 Summit 7 Southern Caribbean $ 829 pp $ 849 pp $ 1119 pp $ 6819 pp $ 117 pp/pd
2022-04-30 Horizon 8 Southern Caribbean $ 749 pp $ 949 pp $ 1279 pp $ 1919 pp $ 94 pp/pd
2022-06-06 Crystal Esprit 7 Mediterranean N/A N/A N/A $ 8698 pp $ 1243 pp/pd
?>